sensor_id;sensor_type;location;lat;lon;timestamp;P1;durP1;ratioP1;P2;durP2;ratioP2
10418;SDS011;5256;48.728;9.140;2023-03-29T00:00:19;0.70;;;0.70;;
10418;SDS011;5256;48.728;9.140;2023-03-29T00:02:45;0.70;;;0.70;;
10418;SDS011;5256;48.728;9.140;2023-03-29T00:05:12;0.80;;;0.80;;
10418;SDS011;5256;48.728;9.140;2023-03-29T00:07:38;0.70;;;0.70;;
10418;SDS011;5256;48.728;9.140;2023-03-29T00:10:05;0.70;;;0.70;;
10418;SDS011;5256;48.728;9.140;2023-03-29T00:12:33;0.70;;;0.70;;
10418;SDS011;5256;48.728;9.140;2023-03-29T00:15:00;0.70;;;0.70;;
10418;SDS011;5256;48.728;9.140;2023-03-29T00:17:26;0.70;;;0.70;;
10418;SDS011;5256;48.728;9.140;2023-03-29T00:19:52;0.70;;;0.70;;
10418;SDS011;5256;48.728;9.140;2023-03-29T00:22:17;0.70;;;0.70;;
10418;SDS011;5256;48.728;9.140;2023-03-29T00:24:43;0.60;;;0.60;;
10418;SDS011;5256;48.728;9.140;2023-03-29T00:27:11;0.80;;;0.80;;
10418;SDS011;5256;48.728;9.140;2023-03-29T00:29:37;0.70;;;0.70;;
10418;SDS011;5256;48.728;9.140;2023-03-29T00:32:03;0.67;;;0.67;;
10418;SDS011;5256;48.728;9.140;2023-03-29T00:34:29;0.70;;;0.70;;
10418;SDS011;5256;48.728;9.140;2023-03-29T00:37:00;0.70;;;0.70;;
10418;SDS011;5256;48.728;9.140;2023-03-29T00:39:26;0.70;;;0.70;;
10418;SDS011;5256;48.728;9.140;2023-03-29T00:41:52;0.70;;;0.70;;
10418;SDS011;5256;48.728;9.140;2023-03-29T00:44:51;0.70;;;0.70;;
10418;SDS011;5256;48.728;9.140;2023-03-29T00:47:44;0.70;;;0.70;;
10418;SDS011;5256;48.728;9.140;2023-03-29T00:50:17;0.70;;;0.70;;
10418;SDS011;5256;48.728;9.140;2023-03-29T00:52:50;0.67;;;0.67;;
10418;SDS011;5256;48.728;9.140;2023-03-29T00:55:21;0.70;;;0.70;;
10418;SDS011;5256;48.728;9.140;2023-03-29T00:57:48;0.70;;;0.70;;
10418;SDS011;5256;48.728;9.140;2023-03-29T01:00:16;0.70;;;0.70;;
10418;SDS011;5256;48.728;9.140;2023-03-29T01:02:45;0.90;;;0.90;;
10418;SDS011;5256;48.728;9.140;2023-03-29T01:05:16;0.70;;;0.70;;
10418;SDS011;5256;48.728;9.140;2023-03-29T01:07:54;0.60;;;0.60;;
10418;SDS011;5256;48.728;9.140;2023-03-29T01:13:05;0.70;;;0.70;;
10418;SDS011;5256;48.728;9.140;2023-03-29T01:15:35;0.70;;;0.70;;
10418;SDS011;5256;48.728;9.140;2023-03-29T01:18:02;0.70;;;0.70;;
10418;SDS011;5256;48.728;9.140;2023-03-29T01:28:53;0.70;;;0.70;;
10418;SDS011;5256;48.728;9.140;2023-03-29T01:31:33;0.70;;;0.70;;
10418;SDS011;5256;48.728;9.140;2023-03-29T01:34:09;0.70;;;0.70;;
10418;SDS011;5256;48.728;9.140;2023-03-29T01:36:41;0.70;;;0.70;;
10418;SDS011;5256;48.728;9.140;2023-03-29T01:39:29;0.70;;;0.70;;
10418;SDS011;5256;48.728;9.140;2023-03-29T01:44:46;0.67;;;0.67;;
10418;SDS011;5256;48.728;9.140;2023-03-29T01:50:17;0.63;;;0.63;;
10418;SDS011;5256;48.728;9.140;2023-03-29T01:53:02;0.70;;;0.70;;
10418;SDS011;5256;48.728;9.140;2023-03-29T01:55:33;0.70;;;0.70;;
10418;SDS011;5256;48.728;9.140;2023-03-29T01:58:02;0.70;;;0.70;;
10418;SDS011;5256;48.728;9.140;2023-03-29T02:00:30;0.80;;;0.80;;
10418;SDS011;5256;48.728;9.140;2023-03-29T02:02:59;0.60;;;0.60;;
10418;SDS011;5256;48.728;9.140;2023-03-29T02:05:29;0.70;;;0.70;;
10418;SDS011;5256;48.728;9.140;2023-03-29T02:07:55;0.70;;;0.70;;
10418;SDS011;5256;48.728;9.140;2023-03-29T02:10:23;0.70;;;0.70;;
10418;SDS011;5256;48.728;9.140;2023-03-29T02:12:50;0.70;;;0.70;;
10418;SDS011;5256;48.728;9.140;2023-03-29T02:15:18;0.70;;;0.70;;
10418;SDS011;5256;48.728;9.140;2023-03-29T02:17:44;0.67;;;0.67;;
10418;SDS011;5256;48.728;9.140;2023-03-29T02:20:32;0.70;;;0.70;;
10418;SDS011;5256;48.728;9.140;2023-03-29T02:23:02;0.80;;;0.80;;
10418;SDS011;5256;48.728;9.140;2023-03-29T02:25:42;0.80;;;0.80;;
10418;SDS011;5256;48.728;9.140;2023-03-29T02:28:09;0.77;;;0.77;;
10418;SDS011;5256;48.728;9.140;2023-03-29T02:33:21;0.73;;;0.73;;
10418;SDS011;5256;48.728;9.140;2023-03-29T02:36:12;0.70;;;0.70;;
10418;SDS011;5256;48.728;9.140;2023-03-29T02:38:43;0.70;;;0.70;;
10418;SDS011;5256;48.728;9.140;2023-03-29T02:41:10;0.70;;;0.70;;
10418;SDS011;5256;48.728;9.140;2023-03-29T02:43:36;0.70;;;0.70;;
10418;SDS011;5256;48.728;9.140;2023-03-29T02:46:04;0.70;;;0.70;;
10418;SDS011;5256;48.728;9.140;2023-03-29T02:48:31;0.80;;;0.80;;
10418;SDS011;5256;48.728;9.140;2023-03-29T02:51:00;0.70;;;0.70;;
10418;SDS011;5256;48.728;9.140;2023-03-29T02:53:32;0.70;;;0.70;;
10418;SDS011;5256;48.728;9.140;2023-03-29T02:56:03;0.70;;;0.70;;
10418;SDS011;5256;48.728;9.140;2023-03-29T02:58:29;0.80;;;0.80;;
10418;SDS011;5256;48.728;9.140;2023-03-29T03:00:55;0.70;;;0.70;;
10418;SDS011;5256;48.728;9.140;2023-03-29T03:03:24;0.80;;;0.80;;
10418;SDS011;5256;48.728;9.140;2023-03-29T03:05:51;0.70;;;0.70;;
10418;SDS011;5256;48.728;9.140;2023-03-29T03:08:17;0.70;;;0.70;;
10418;SDS011;5256;48.728;9.140;2023-03-29T03:10:43;0.70;;;0.70;;
10418;SDS011;5256;48.728;9.140;2023-03-29T03:13:09;0.80;;;0.80;;
10418;SDS011;5256;48.728;9.140;2023-03-29T03:15:36;0.70;;;0.70;;
10418;SDS011;5256;48.728;9.140;2023-03-29T03:18:06;0.70;;;0.70;;
10418;SDS011;5256;48.728;9.140;2023-03-29T03:20:33;0.80;;;0.80;;
10418;SDS011;5256;48.728;9.140;2023-03-29T03:22:59;0.70;;;0.70;;
10418;SDS011;5256;48.728;9.140;2023-03-29T03:25:27;0.70;;;0.70;;
10418;SDS011;5256;48.728;9.140;2023-03-29T03:27:53;0.70;;;0.70;;
10418;SDS011;5256;48.728;9.140;2023-03-29T03:30:19;0.70;;;0.70;;
10418;SDS011;5256;48.728;9.140;2023-03-29T03:32:45;0.70;;;0.70;;
10418;SDS011;5256;48.728;9.140;2023-03-29T03:35:12;0.77;;;0.77;;
10418;SDS011;5256;48.728;9.140;2023-03-29T03:37:38;0.70;;;0.70;;
10418;SDS011;5256;48.728;9.140;2023-03-29T03:40:04;0.70;;;0.70;;
10418;SDS011;5256;48.728;9.140;2023-03-29T03:42:30;0.80;;;0.80;;
10418;SDS011;5256;48.728;9.140;2023-03-29T03:44:56;0.77;;;0.77;;
10418;SDS011;5256;48.728;9.140;2023-03-29T03:47:22;0.73;;;0.73;;
10418;SDS011;5256;48.728;9.140;2023-03-29T03:49:48;0.70;;;0.70;;
10418;SDS011;5256;48.728;9.140;2023-03-29T03:52:15;0.60;;;0.60;;
10418;SDS011;5256;48.728;9.140;2023-03-29T03:54:41;0.60;;;0.60;;
10418;SDS011;5256;48.728;9.140;2023-03-29T03:57:07;0.60;;;0.60;;
10418;SDS011;5256;48.728;9.140;2023-03-29T03:59:32;0.70;;;0.70;;
10418;SDS011;5256;48.728;9.140;2023-03-29T04:01:58;0.90;;;0.90;;
10418;SDS011;5256;48.728;9.140;2023-03-29T04:04:24;0.70;;;0.70;;
10418;SDS011;5256;48.728;9.140;2023-03-29T04:06:50;0.60;;;0.60;;
10418;SDS011;5256;48.728;9.140;2023-03-29T04:09:16;0.63;;;0.63;;
10418;SDS011;5256;48.728;9.140;2023-03-29T04:11:42;0.87;;;0.87;;
10418;SDS011;5256;48.728;9.140;2023-03-29T04:14:08;0.70;;;0.70;;
10418;SDS011;5256;48.728;9.140;2023-03-29T04:16:34;0.70;;;0.70;;
10418;SDS011;5256;48.728;9.140;2023-03-29T04:18:59;0.70;;;0.70;;
10418;SDS011;5256;48.728;9.140;2023-03-29T04:21:25;0.70;;;0.70;;
10418;SDS011;5256;48.728;9.140;2023-03-29T04:23:51;0.70;;;0.70;;
10418;SDS011;5256;48.728;9.140;2023-03-29T04:26:16;0.70;;;0.70;;
10418;SDS011;5256;48.728;9.140;2023-03-29T04:28:42;0.63;;;0.63;;
10418;SDS011;5256;48.728;9.140;2023-03-29T04:31:09;0.77;;;0.77;;
10418;SDS011;5256;48.728;9.140;2023-03-29T04:33:36;0.63;;;0.63;;
10418;SDS011;5256;48.728;9.140;2023-03-29T04:36:02;0.70;;;0.70;;
10418;SDS011;5256;48.728;9.140;2023-03-29T04:38:28;0.70;;;0.70;;
10418;SDS011;5256;48.728;9.140;2023-03-29T04:40:54;0.60;;;0.60;;
10418;SDS011;5256;48.728;9.140;2023-03-29T04:43:19;0.60;;;0.60;;
10418;SDS011;5256;48.728;9.140;2023-03-29T04:45:46;0.70;;;0.70;;
10418;SDS011;5256;48.728;9.140;2023-03-29T04:48:12;0.77;;;0.77;;
10418;SDS011;5256;48.728;9.140;2023-03-29T04:50:37;0.60;;;0.60;;
10418;SDS011;5256;48.728;9.140;2023-03-29T04:53:03;0.70;;;0.70;;
10418;SDS011;5256;48.728;9.140;2023-03-29T04:55:28;0.60;;;0.60;;
10418;SDS011;5256;48.728;9.140;2023-03-29T04:57:54;0.67;;;0.67;;
10418;SDS011;5256;48.728;9.140;2023-03-29T05:00:20;0.70;;;0.70;;
10418;SDS011;5256;48.728;9.140;2023-03-29T05:02:51;0.60;;;0.60;;
10418;SDS011;5256;48.728;9.140;2023-03-29T05:05:17;0.53;;;0.53;;
10418;SDS011;5256;48.728;9.140;2023-03-29T05:07:42;0.70;;;0.70;;
10418;SDS011;5256;48.728;9.140;2023-03-29T05:10:09;0.70;;;0.70;;
10418;SDS011;5256;48.728;9.140;2023-03-29T05:12:34;0.77;;;0.77;;
10418;SDS011;5256;48.728;9.140;2023-03-29T05:15:00;0.60;;;0.60;;
10418;SDS011;5256;48.728;9.140;2023-03-29T05:17:26;0.63;;;0.63;;
10418;SDS011;5256;48.728;9.140;2023-03-29T05:19:52;0.60;;;0.60;;
10418;SDS011;5256;48.728;9.140;2023-03-29T05:22:18;0.60;;;0.60;;
10418;SDS011;5256;48.728;9.140;2023-03-29T05:24:45;0.60;;;0.60;;
10418;SDS011;5256;48.728;9.140;2023-03-29T05:27:11;0.60;;;0.60;;
10418;SDS011;5256;48.728;9.140;2023-03-29T05:29:37;0.60;;;0.60;;
10418;SDS011;5256;48.728;9.140;2023-03-29T05:32:03;0.60;;;0.60;;
10418;SDS011;5256;48.728;9.140;2023-03-29T05:34:28;0.60;;;0.60;;
10418;SDS011;5256;48.728;9.140;2023-03-29T05:36:55;0.53;;;0.53;;
10418;SDS011;5256;48.728;9.140;2023-03-29T05:39:23;0.60;;;0.60;;
10418;SDS011;5256;48.728;9.140;2023-03-29T05:41:49;0.60;;;0.60;;
10418;SDS011;5256;48.728;9.140;2023-03-29T05:44:15;0.70;;;0.70;;
10418;SDS011;5256;48.728;9.140;2023-03-29T05:46:41;0.60;;;0.60;;
10418;SDS011;5256;48.728;9.140;2023-03-29T05:49:06;0.70;;;0.70;;
10418;SDS011;5256;48.728;9.140;2023-03-29T05:51:32;0.70;;;0.70;;
10418;SDS011;5256;48.728;9.140;2023-03-29T05:53:59;0.70;;;0.70;;
10418;SDS011;5256;48.728;9.140;2023-03-29T05:56:25;0.67;;;0.67;;
10418;SDS011;5256;48.728;9.140;2023-03-29T05:58:52;0.80;;;0.80;;
10418;SDS011;5256;48.728;9.140;2023-03-29T06:01:20;0.60;;;0.60;;
10418;SDS011;5256;48.728;9.140;2023-03-29T06:03:48;0.60;;;0.60;;
10418;SDS011;5256;48.728;9.140;2023-03-29T06:06:14;0.67;;;0.67;;
10418;SDS011;5256;48.728;9.140;2023-03-29T06:08:41;0.60;;;0.60;;
10418;SDS011;5256;48.728;9.140;2023-03-29T06:11:07;0.60;;;0.60;;
10418;SDS011;5256;48.728;9.140;2023-03-29T06:13:34;0.60;;;0.60;;
10418;SDS011;5256;48.728;9.140;2023-03-29T06:16:02;0.60;;;0.60;;
10418;SDS011;5256;48.728;9.140;2023-03-29T06:18:29;0.60;;;0.60;;
10418;SDS011;5256;48.728;9.140;2023-03-29T06:20:56;0.50;;;0.50;;
10418;SDS011;5256;48.728;9.140;2023-03-29T06:23:21;0.60;;;0.60;;
10418;SDS011;5256;48.728;9.140;2023-03-29T06:25:47;0.53;;;0.53;;
10418;SDS011;5256;48.728;9.140;2023-03-29T06:28:15;0.50;;;0.50;;
10418;SDS011;5256;48.728;9.140;2023-03-29T06:30:41;0.60;;;0.60;;
10418;SDS011;5256;48.728;9.140;2023-03-29T06:33:08;0.50;;;0.50;;
10418;SDS011;5256;48.728;9.140;2023-03-29T06:35:34;0.50;;;0.50;;
10418;SDS011;5256;48.728;9.140;2023-03-29T06:38:01;0.50;;;0.50;;
10418;SDS011;5256;48.728;9.140;2023-03-29T06:40:27;0.50;;;0.50;;
10418;SDS011;5256;48.728;9.140;2023-03-29T06:42:53;0.50;;;0.50;;
10418;SDS011;5256;48.728;9.140;2023-03-29T06:45:23;0.60;;;0.60;;
10418;SDS011;5256;48.728;9.140;2023-03-29T06:47:50;0.60;;;0.60;;
10418;SDS011;5256;48.728;9.140;2023-03-29T06:50:16;0.57;;;0.57;;
10418;SDS011;5256;48.728;9.140;2023-03-29T06:52:42;0.50;;;0.50;;
10418;SDS011;5256;48.728;9.140;2023-03-29T06:55:09;0.40;;;0.40;;
10418;SDS011;5256;48.728;9.140;2023-03-29T06:57:36;0.50;;;0.50;;
10418;SDS011;5256;48.728;9.140;2023-03-29T07:00:02;0.50;;;0.50;;
10418;SDS011;5256;48.728;9.140;2023-03-29T07:02:43;0.50;;;0.50;;
10418;SDS011;5256;48.728;9.140;2023-03-29T07:05:09;0.70;;;0.70;;
10418;SDS011;5256;48.728;9.140;2023-03-29T07:07:41;0.40;;;0.40;;
10418;SDS011;5256;48.728;9.140;2023-03-29T07:10:21;0.50;;;0.50;;
10418;SDS011;5256;48.728;9.140;2023-03-29T07:12:56;0.50;;;0.50;;
10418;SDS011;5256;48.728;9.140;2023-03-29T07:15:23;0.50;;;0.50;;
10418;SDS011;5256;48.728;9.140;2023-03-29T07:17:50;0.50;;;0.50;;
10418;SDS011;5256;48.728;9.140;2023-03-29T07:20:15;0.50;;;0.50;;
10418;SDS011;5256;48.728;9.140;2023-03-29T07:22:42;0.50;;;0.50;;
10418;SDS011;5256;48.728;9.140;2023-03-29T07:25:08;0.50;;;0.50;;
10418;SDS011;5256;48.728;9.140;2023-03-29T07:27:36;0.40;;;0.40;;
10418;SDS011;5256;48.728;9.140;2023-03-29T07:30:04;0.50;;;0.50;;
10418;SDS011;5256;48.728;9.140;2023-03-29T07:32:34;0.40;;;0.40;;
10418;SDS011;5256;48.728;9.140;2023-03-29T07:35:00;0.50;;;0.50;;
10418;SDS011;5256;48.728;9.140;2023-03-29T07:37:28;0.50;;;0.50;;
10418;SDS011;5256;48.728;9.140;2023-03-29T07:39:53;0.40;;;0.40;;
10418;SDS011;5256;48.728;9.140;2023-03-29T07:42:20;0.50;;;0.50;;
10418;SDS011;5256;48.728;9.140;2023-03-29T07:44:46;0.47;;;0.47;;
10418;SDS011;5256;48.728;9.140;2023-03-29T07:47:12;0.50;;;0.50;;
10418;SDS011;5256;48.728;9.140;2023-03-29T07:49:39;0.40;;;0.40;;
10418;SDS011;5256;48.728;9.140;2023-03-29T07:52:06;0.47;;;0.47;;
10418;SDS011;5256;48.728;9.140;2023-03-29T07:54:32;0.40;;;0.40;;
10418;SDS011;5256;48.728;9.140;2023-03-29T07:56:58;0.50;;;0.50;;
10418;SDS011;5256;48.728;9.140;2023-03-29T07:59:24;0.40;;;0.40;;
10418;SDS011;5256;48.728;9.140;2023-03-29T08:01:51;0.40;;;0.40;;
10418;SDS011;5256;48.728;9.140;2023-03-29T08:04:17;0.47;;;0.47;;
10418;SDS011;5256;48.728;9.140;2023-03-29T08:06:42;0.40;;;0.40;;
10418;SDS011;5256;48.728;9.140;2023-03-29T08:09:08;0.20;;;0.20;;
10418;SDS011;5256;48.728;9.140;2023-03-29T08:11:33;0.40;;;0.40;;
10418;SDS011;5256;48.728;9.140;2023-03-29T08:13:59;0.47;;;0.47;;
10418;SDS011;5256;48.728;9.140;2023-03-29T08:16:25;0.40;;;0.40;;
10418;SDS011;5256;48.728;9.140;2023-03-29T08:18:50;0.40;;;0.40;;
10418;SDS011;5256;48.728;9.140;2023-03-29T08:21:16;0.40;;;0.40;;
10418;SDS011;5256;48.728;9.140;2023-03-29T08:23:42;0.40;;;0.40;;
10418;SDS011;5256;48.728;9.140;2023-03-29T08:26:07;0.50;;;0.50;;
10418;SDS011;5256;48.728;9.140;2023-03-29T08:28:33;0.40;;;0.40;;
10418;SDS011;5256;48.728;9.140;2023-03-29T08:30:59;0.53;;;0.53;;
10418;SDS011;5256;48.728;9.140;2023-03-29T08:33:25;0.30;;;0.30;;
10418;SDS011;5256;48.728;9.140;2023-03-29T08:35:50;0.50;;;0.50;;
10418;SDS011;5256;48.728;9.140;2023-03-29T08:38:16;0.37;;;0.37;;
10418;SDS011;5256;48.728;9.140;2023-03-29T08:40:42;0.50;;;0.50;;
10418;SDS011;5256;48.728;9.140;2023-03-29T08:43:17;0.40;;;0.40;;
10418;SDS011;5256;48.728;9.140;2023-03-29T08:48:28;0.40;;;0.40;;
10418;SDS011;5256;48.728;9.140;2023-03-29T08:51:01;0.40;;;0.40;;
10418;SDS011;5256;48.728;9.140;2023-03-29T08:53:39;0.50;;;0.50;;
10418;SDS011;5256;48.728;9.140;2023-03-29T08:56:14;0.33;;;0.33;;
10418;SDS011;5256;48.728;9.140;2023-03-29T08:58:44;0.50;;;0.50;;
10418;SDS011;5256;48.728;9.140;2023-03-29T09:01:11;0.30;;;0.30;;
10418;SDS011;5256;48.728;9.140;2023-03-29T09:03:44;0.40;;;0.40;;
10418;SDS011;5256;48.728;9.140;2023-03-29T09:06:12;0.40;;;0.40;;
10418;SDS011;5256;48.728;9.140;2023-03-29T09:08:40;0.40;;;0.40;;
10418;SDS011;5256;48.728;9.140;2023-03-29T09:16:43;0.40;;;0.40;;
10418;SDS011;5256;48.728;9.140;2023-03-29T09:22:15;0.30;;;0.30;;
10418;SDS011;5256;48.728;9.140;2023-03-29T09:27:56;0.40;;;0.40;;
10418;SDS011;5256;48.728;9.140;2023-03-29T09:30:41;0.40;;;0.40;;
10418;SDS011;5256;48.728;9.140;2023-03-29T09:33:27;0.40;;;0.40;;
10418;SDS011;5256;48.728;9.140;2023-03-29T09:38:58;0.40;;;0.40;;
10418;SDS011;5256;48.728;9.140;2023-03-29T09:41:26;0.40;;;0.40;;
10418;SDS011;5256;48.728;9.140;2023-03-29T09:44:00;0.40;;;0.40;;
10418;SDS011;5256;48.728;9.140;2023-03-29T09:46:35;0.30;;;0.30;;
10418;SDS011;5256;48.728;9.140;2023-03-29T09:49:11;0.40;;;0.40;;
10418;SDS011;5256;48.728;9.140;2023-03-29T09:51:41;0.33;;;0.33;;
10418;SDS011;5256;48.728;9.140;2023-03-29T09:54:09;0.50;;;0.50;;
10418;SDS011;5256;48.728;9.140;2023-03-29T09:56:36;0.50;;;0.50;;
10418;SDS011;5256;48.728;9.140;2023-03-29T09:59:01;0.40;;;0.40;;
10418;SDS011;5256;48.728;9.140;2023-03-29T10:01:33;0.30;;;0.30;;
10418;SDS011;5256;48.728;9.140;2023-03-29T10:04:07;0.30;;;0.30;;
10418;SDS011;5256;48.728;9.140;2023-03-29T10:06:35;0.30;;;0.30;;
10418;SDS011;5256;48.728;9.140;2023-03-29T10:09:01;0.40;;;0.40;;
10418;SDS011;5256;48.728;9.140;2023-03-29T10:11:32;0.37;;;0.37;;
10418;SDS011;5256;48.728;9.140;2023-03-29T10:14:19;0.30;;;0.30;;
10418;SDS011;5256;48.728;9.140;2023-03-29T10:17:25;0.50;;;0.50;;
10418;SDS011;5256;48.728;9.140;2023-03-29T10:20:03;0.40;;;0.40;;
10418;SDS011;5256;48.728;9.140;2023-03-29T10:22:34;0.30;;;0.30;;
10418;SDS011;5256;48.728;9.140;2023-03-29T10:25:02;0.33;;;0.33;;
10418;SDS011;5256;48.728;9.140;2023-03-29T10:27:29;0.30;;;0.30;;
10418;SDS011;5256;48.728;9.140;2023-03-29T10:29:58;0.40;;;0.40;;
10418;SDS011;5256;48.728;9.140;2023-03-29T10:32:32;0.30;;;0.30;;
10418;SDS011;5256;48.728;9.140;2023-03-29T10:35:07;0.30;;;0.30;;
10418;SDS011;5256;48.728;9.140;2023-03-29T10:37:42;0.40;;;0.40;;
10418;SDS011;5256;48.728;9.140;2023-03-29T10:40:19;0.40;;;0.40;;
10418;SDS011;5256;48.728;9.140;2023-03-29T10:42:51;0.37;;;0.37;;
10418;SDS011;5256;48.728;9.140;2023-03-29T10:45:19;0.40;;;0.40;;
10418;SDS011;5256;48.728;9.140;2023-03-29T10:47:53;0.40;;;0.40;;
10418;SDS011;5256;48.728;9.140;2023-03-29T10:50:20;0.40;;;0.40;;
10418;SDS011;5256;48.728;9.140;2023-03-29T10:52:46;0.40;;;0.40;;
10418;SDS011;5256;48.728;9.140;2023-03-29T10:55:14;0.40;;;0.40;;
10418;SDS011;5256;48.728;9.140;2023-03-29T10:58:04;0.40;;;0.40;;
10418;SDS011;5256;48.728;9.140;2023-03-29T11:06:39;0.30;;;0.30;;
10418;SDS011;5256;48.728;9.140;2023-03-29T11:09:38;0.50;;;0.50;;
10418;SDS011;5256;48.728;9.140;2023-03-29T11:15:15;0.37;;;0.37;;
10418;SDS011;5256;48.728;9.140;2023-03-29T11:21:15;0.40;;;0.40;;
10418;SDS011;5256;48.728;9.140;2023-03-29T11:23:47;0.40;;;0.40;;
10418;SDS011;5256;48.728;9.140;2023-03-29T11:26:36;0.37;;;0.37;;
10418;SDS011;5256;48.728;9.140;2023-03-29T11:39:46;0.40;;;0.40;;
10418;SDS011;5256;48.728;9.140;2023-03-29T11:42:33;0.33;;;0.33;;
10418;SDS011;5256;48.728;9.140;2023-03-29T11:45:01;0.40;;;0.40;;
10418;SDS011;5256;48.728;9.140;2023-03-29T11:47:32;0.40;;;0.40;;
10418;SDS011;5256;48.728;9.140;2023-03-29T11:50:16;0.33;;;0.33;;
10418;SDS011;5256;48.728;9.140;2023-03-29T11:55:24;0.40;;;0.40;;
10418;SDS011;5256;48.728;9.140;2023-03-29T11:58:27;0.30;;;0.30;;
10418;SDS011;5256;48.728;9.140;2023-03-29T12:01:09;0.50;;;0.50;;
10418;SDS011;5256;48.728;9.140;2023-03-29T12:07:14;0.40;;;0.40;;
10418;SDS011;5256;48.728;9.140;2023-03-29T12:10:00;0.40;;;0.40;;
10418;SDS011;5256;48.728;9.140;2023-03-29T12:12:49;0.30;;;0.30;;
10418;SDS011;5256;48.728;9.140;2023-03-29T12:15:58;0.30;;;0.30;;
10418;SDS011;5256;48.728;9.140;2023-03-29T12:24:42;0.40;;;0.40;;
10418;SDS011;5256;48.728;9.140;2023-03-29T12:27:18;0.30;;;0.30;;
10418;SDS011;5256;48.728;9.140;2023-03-29T12:33:06;0.40;;;0.40;;
10418;SDS011;5256;48.728;9.140;2023-03-29T12:36:05;0.30;;;0.30;;
10418;SDS011;5256;48.728;9.140;2023-03-29T12:38:54;0.40;;;0.40;;
10418;SDS011;5256;48.728;9.140;2023-03-29T12:41:21;0.37;;;0.37;;
10418;SDS011;5256;48.728;9.140;2023-03-29T12:43:48;0.40;;;0.40;;
10418;SDS011;5256;48.728;9.140;2023-03-29T12:46:24;0.30;;;0.30;;
10418;SDS011;5256;48.728;9.140;2023-03-29T12:48:59;0.30;;;0.30;;
10418;SDS011;5256;48.728;9.140;2023-03-29T12:51:33;0.43;;;0.43;;
10418;SDS011;5256;48.728;9.140;2023-03-29T12:54:20;0.30;;;0.30;;
10418;SDS011;5256;48.728;9.140;2023-03-29T12:59:24;0.47;;;0.47;;
10418;SDS011;5256;48.728;9.140;2023-03-29T13:07:13;0.40;;;0.40;;
10418;SDS011;5256;48.728;9.140;2023-03-29T13:09:52;0.40;;;0.40;;
10418;SDS011;5256;48.728;9.140;2023-03-29T13:12:35;0.40;;;0.40;;
10418;SDS011;5256;48.728;9.140;2023-03-29T13:23:47;0.40;;;0.40;;
10418;SDS011;5256;48.728;9.140;2023-03-29T13:26:25;0.50;;;0.50;;
10418;SDS011;5256;48.728;9.140;2023-03-29T13:29:01;0.40;;;0.40;;
10418;SDS011;5256;48.728;9.140;2023-03-29T13:35:06;0.40;;;0.40;;
10418;SDS011;5256;48.728;9.140;2023-03-29T13:40:26;0.50;;;0.50;;
10418;SDS011;5256;48.728;9.140;2023-03-29T13:45:32;0.40;;;0.40;;
10418;SDS011;5256;48.728;9.140;2023-03-29T13:50:56;0.40;;;0.40;;
10418;SDS011;5256;48.728;9.140;2023-03-29T13:53:33;0.40;;;0.40;;
10418;SDS011;5256;48.728;9.140;2023-03-29T13:56:17;0.30;;;0.30;;
10418;SDS011;5256;48.728;9.140;2023-03-29T13:58:50;0.30;;;0.30;;
10418;SDS011;5256;48.728;9.140;2023-03-29T14:03:55;0.50;;;0.50;;
10418;SDS011;5256;48.728;9.140;2023-03-29T14:06:27;0.30;;;0.30;;
10418;SDS011;5256;48.728;9.140;2023-03-29T14:08:56;0.37;;;0.37;;
10418;SDS011;5256;48.728;9.140;2023-03-29T14:11:28;0.30;;;0.30;;
10418;SDS011;5256;48.728;9.140;2023-03-29T14:16:51;0.40;;;0.40;;
10418;SDS011;5256;48.728;9.140;2023-03-29T14:19:55;0.40;;;0.40;;
10418;SDS011;5256;48.728;9.140;2023-03-29T14:22:52;0.30;;;0.30;;
10418;SDS011;5256;48.728;9.140;2023-03-29T14:25:23;0.30;;;0.30;;
10418;SDS011;5256;48.728;9.140;2023-03-29T14:27:55;0.30;;;0.30;;
10418;SDS011;5256;48.728;9.140;2023-03-29T14:30:22;0.37;;;0.37;;
10418;SDS011;5256;48.728;9.140;2023-03-29T14:32:51;0.40;;;0.40;;
10418;SDS011;5256;48.728;9.140;2023-03-29T14:35:17;0.30;;;0.30;;
10418;SDS011;5256;48.728;9.140;2023-03-29T14:46:29;0.40;;;0.40;;
10418;SDS011;5256;48.728;9.140;2023-03-29T14:48:57;0.30;;;0.30;;
10418;SDS011;5256;48.728;9.140;2023-03-29T14:51:24;0.30;;;0.30;;
10418;SDS011;5256;48.728;9.140;2023-03-29T14:53:56;0.30;;;0.30;;
10418;SDS011;5256;48.728;9.140;2023-03-29T14:56:23;0.27;;;0.27;;
10418;SDS011;5256;48.728;9.140;2023-03-29T14:58:52;0.30;;;0.30;;
10418;SDS011;5256;48.728;9.140;2023-03-29T15:01:20;0.40;;;0.40;;
10418;SDS011;5256;48.728;9.140;2023-03-29T15:03:52;0.30;;;0.30;;
10418;SDS011;5256;48.728;9.140;2023-03-29T15:06:29;0.27;;;0.27;;
10418;SDS011;5256;48.728;9.140;2023-03-29T15:08:56;0.30;;;0.30;;
10418;SDS011;5256;48.728;9.140;2023-03-29T15:11:24;0.23;;;0.23;;
10418;SDS011;5256;48.728;9.140;2023-03-29T15:13:54;0.30;;;0.30;;
10418;SDS011;5256;48.728;9.140;2023-03-29T15:16:28;0.30;;;0.30;;
10418;SDS011;5256;48.728;9.140;2023-03-29T15:18:54;0.33;;;0.33;;
10418;SDS011;5256;48.728;9.140;2023-03-29T15:21:21;0.40;;;0.40;;
10418;SDS011;5256;48.728;9.140;2023-03-29T15:23:50;0.30;;;0.30;;
10418;SDS011;5256;48.728;9.140;2023-03-29T15:26:19;0.30;;;0.30;;
10418;SDS011;5256;48.728;9.140;2023-03-29T15:28:48;0.30;;;0.30;;
10418;SDS011;5256;48.728;9.140;2023-03-29T15:31:19;0.20;;;0.20;;
10418;SDS011;5256;48.728;9.140;2023-03-29T15:34:05;0.30;;;0.30;;
10418;SDS011;5256;48.728;9.140;2023-03-29T15:36:34;0.30;;;0.30;;
10418;SDS011;5256;48.728;9.140;2023-03-29T15:39:13;0.30;;;0.30;;
10418;SDS011;5256;48.728;9.140;2023-03-29T15:41:41;0.30;;;0.30;;
10418;SDS011;5256;48.728;9.140;2023-03-29T15:44:07;0.30;;;0.30;;
10418;SDS011;5256;48.728;9.140;2023-03-29T15:46:34;0.30;;;0.30;;
10418;SDS011;5256;48.728;9.140;2023-03-29T15:49:00;0.30;;;0.30;;
10418;SDS011;5256;48.728;9.140;2023-03-29T15:51:25;0.30;;;0.30;;
10418;SDS011;5256;48.728;9.140;2023-03-29T15:53:51;0.30;;;0.30;;
10418;SDS011;5256;48.728;9.140;2023-03-29T15:56:17;0.30;;;0.30;;
10418;SDS011;5256;48.728;9.140;2023-03-29T15:58:44;0.30;;;0.30;;
10418;SDS011;5256;48.728;9.140;2023-03-29T16:03:58;0.20;;;0.20;;
10418;SDS011;5256;48.728;9.140;2023-03-29T16:06:30;0.30;;;0.30;;
10418;SDS011;5256;48.728;9.140;2023-03-29T16:08:57;0.20;;;0.20;;
10418;SDS011;5256;48.728;9.140;2023-03-29T16:11:22;0.30;;;0.30;;
10418;SDS011;5256;48.728;9.140;2023-03-29T16:13:48;0.30;;;0.30;;
10418;SDS011;5256;48.728;9.140;2023-03-29T16:16:14;0.37;;;0.37;;
10418;SDS011;5256;48.728;9.140;2023-03-29T16:18:39;0.30;;;0.30;;
10418;SDS011;5256;48.728;9.140;2023-03-29T16:21:05;0.33;;;0.33;;
10418;SDS011;5256;48.728;9.140;2023-03-29T16:23:35;0.30;;;0.30;;
10418;SDS011;5256;48.728;9.140;2023-03-29T16:26:02;0.30;;;0.30;;
10418;SDS011;5256;48.728;9.140;2023-03-29T16:28:28;0.30;;;0.30;;
10418;SDS011;5256;48.728;9.140;2023-03-29T16:30:54;0.40;;;0.40;;
10418;SDS011;5256;48.728;9.140;2023-03-29T16:33:19;0.30;;;0.30;;
10418;SDS011;5256;48.728;9.140;2023-03-29T16:35:45;0.40;;;0.40;;
10418;SDS011;5256;48.728;9.140;2023-03-29T16:38:11;0.30;;;0.30;;
10418;SDS011;5256;48.728;9.140;2023-03-29T16:40:36;0.30;;;0.30;;
10418;SDS011;5256;48.728;9.140;2023-03-29T16:43:02;0.30;;;0.30;;
10418;SDS011;5256;48.728;9.140;2023-03-29T16:45:28;0.27;;;0.27;;
10418;SDS011;5256;48.728;9.140;2023-03-29T16:47:54;0.30;;;0.30;;
10418;SDS011;5256;48.728;9.140;2023-03-29T16:50:20;0.30;;;0.30;;
10418;SDS011;5256;48.728;9.140;2023-03-29T16:52:46;0.30;;;0.30;;
10418;SDS011;5256;48.728;9.140;2023-03-29T16:55:13;0.27;;;0.27;;
10418;SDS011;5256;48.728;9.140;2023-03-29T16:57:42;0.30;;;0.30;;
10418;SDS011;5256;48.728;9.140;2023-03-29T17:00:10;0.40;;;0.40;;
10418;SDS011;5256;48.728;9.140;2023-03-29T17:02:43;0.30;;;0.30;;
10418;SDS011;5256;48.728;9.140;2023-03-29T17:05:10;0.50;;;0.50;;
10418;SDS011;5256;48.728;9.140;2023-03-29T17:07:36;0.30;;;0.30;;
10418;SDS011;5256;48.728;9.140;2023-03-29T17:10:03;0.20;;;0.20;;
10418;SDS011;5256;48.728;9.140;2023-03-29T17:12:31;0.30;;;0.30;;
10418;SDS011;5256;48.728;9.140;2023-03-29T17:14:56;0.20;;;0.20;;
10418;SDS011;5256;48.728;9.140;2023-03-29T17:17:22;0.30;;;0.30;;